Terminal Aerodrome Forecast
Issued by NWS

Home | Current Version | Previous Version | Graphics & Text | Print | Product List | Glossary On
Versions: 1 2 3 4 5 6 7 8 9 10 11 12
000
FTUS45 KGGW 091120
TAFGDV
TAF
KGDV 091120Z 0912/1012 27007KT P6SM SKC WS020/32030KT
     FM091800 28015G25KT P6SM SKC
     FM092100 27014G23KT P6SM SKC WS020/31045KT
     FM100600 26011KT P6SM FEW150 WS020/32040KT
     FM100900 26010KT P6SM SCT150=

USA.gov is the U.S. government's official web portal to all federal, state and local government web resources and services.